Time;durP1;ratioP1;P1;durP2;ratioP2;P2;SDS_P1;SDS_P2;PMS_P1;PMS_P2;Temp;Humidity;BMP_temperature;BMP_pressure;BME280_temperature;BME280_humidity;BME280_pressure;Samples;Min_cycle;Max_cycle;Signal;HPM_P1;HPM_P2
2023/12/18 00:01:26;;;;;;;41.70;16.20;;;8.00;99.90;;;;;;5058986;28;20025;-70
2023/12/18 00:03:52;;;;;;;38.88;15.48;;;8.00;99.90;;;;;;5059262;28;20033;-70
2023/12/18 00:06:18;;;;;;;42.85;16.10;;;7.90;99.90;;;;;;5059433;28;20036;-70
2023/12/18 00:08:43;;;;;;;43.85;16.98;;;8.00;99.90;;;;;;5060399;28;20436;-69
2023/12/18 00:11:09;;;;;;;39.88;15.93;;;7.90;99.90;;;;;;5059483;28;20060;-69
2023/12/18 00:13:34;;;;;;;42.95;15.30;;;7.90;99.90;;;;;;5059352;28;20036;-70
2023/12/18 00:16:00;;;;;;;47.30;16.45;;;7.90;99.90;;;;;;5060304;28;20112;-72
2023/12/18 00:18:27;;;;;;;40.38;15.85;;;7.90;99.90;;;;;;5060914;28;20036;-69
2023/12/18 00:20:52;;;;;;;46.67;15.93;;;7.90;99.90;;;;;;5060467;28;20025;-67
2023/12/18 00:23:18;;;;;;;49.97;18.13;;;7.90;99.90;;;;;;5059027;28;20138;-69
2023/12/18 00:25:44;;;;;;;44.90;16.70;;;7.90;99.90;;;;;;5060104;28;20480;-68
2023/12/18 00:28:09;;;;;;;46.95;16.45;;;7.90;99.90;;;;;;5060851;28;20040;-69
2023/12/18 00:30:35;;;;;;;49.33;17.23;;;7.80;99.90;;;;;;5060150;28;20021;-69
2023/12/18 00:33:01;;;;;;;51.38;18.10;;;7.80;99.90;;;;;;5060637;28;20114;-70
2023/12/18 00:35:28;;;;;;;46.17;16.92;;;7.80;99.90;;;;;;5060501;28;20386;-69
2023/12/18 00:37:54;;;;;;;47.33;17.13;;;7.80;99.90;;;;;;5060482;28;20025;-70
2023/12/18 00:40:20;;;;;;;43.70;17.23;;;7.80;99.90;;;;;;5059844;28;20029;-68
2023/12/18 00:42:47;;;;;;;44.47;16.85;;;7.80;99.90;;;;;;5058541;28;20092;-69
2023/12/18 00:45:15;;;;;;;48.30;17.27;;;7.80;99.90;;;;;;5060514;28;20440;-70
2023/12/18 00:47:40;;;;;;;39.10;15.30;;;7.70;99.90;;;;;;5058889;28;20033;-70
2023/12/18 00:50:09;;;;;;;41.63;16.95;;;7.70;99.90;;;;;;5060577;28;20029;-70
2023/12/18 00:52:38;;;;;;;45.58;17.33;;;7.70;99.90;;;;;;5063625;28;20112;-69
2023/12/18 00:55:04;;;;;;;48.85;17.30;;;7.70;99.90;;;;;;5063779;28;20036;-70
2023/12/18 00:57:30;;;;;;;44.65;17.77;;;7.70;99.90;;;;;;5064133;28;20025;-70
2023/12/18 00:59:55;;;;;;;44.17;16.75;;;7.70;99.90;;;;;;5062573;28;20068;-67
2023/12/18 01:02:21;;;;;;;55.10;19.00;;;7.70;99.90;;;;;;5063908;28;20059;-69
2023/12/18 01:04:47;;;;;;;36.40;16.20;;;7.70;99.90;;;;;;5063752;28;20036;-69
2023/12/18 01:07:12;;;;;;;45.95;17.98;;;7.70;99.90;;;;;;5063836;28;20017;-68
2023/12/18 01:09:38;;;;;;;48.90;17.30;;;7.70;99.90;;;;;;5063678;28;20044;-69
2023/12/18 01:12:04;;;;;;;50.83;18.98;;;7.70;99.90;;;;;;5063438;28;20021;-69
2023/12/18 01:14:30;;;;;;;44.08;16.80;;;7.70;99.90;;;;;;5063894;28;20032;-70
2023/12/18 01:16:55;;;;;;;38.53;14.40;;;7.70;99.90;;;;;;5063723;28;20025;-70
2023/12/18 01:19:21;;;;;;;53.47;17.30;;;7.70;99.90;;;;;;5063835;28;20039;-69
2023/12/18 01:21:47;;;;;;;53.47;19.52;;;7.70;99.90;;;;;;5063496;28;20514;-69
2023/12/18 01:24:12;;;;;;;50.22;19.33;;;7.70;99.90;;;;;;5062079;28;20041;-69
2023/12/18 01:26:38;;;;;;;56.97;18.98;;;7.70;99.90;;;;;;5063404;28;20032;-71
2023/12/18 01:29:04;;;;;;;43.13;18.52;;;7.70;99.90;;;;;;5061880;28;20036;-69
2023/12/18 01:31:30;;;;;;;53.00;19.65;;;7.70;99.90;;;;;;5063264;28;20048;-70
2023/12/18 01:33:57;;;;;;;63.58;20.17;;;7.70;99.90;;;;;;5063314;28;20026;-75
2023/12/18 01:36:23;;;;;;;54.10;17.80;;;7.70;99.90;;;;;;5061638;28;20045;-71
2023/12/18 01:38:49;;;;;;;50.63;20.27;;;7.70;99.90;;;;;;5063233;28;20079;-69
2023/12/18 01:41:14;;;;;;;52.95;18.42;;;7.70;99.90;;;;;;5062212;28;20033;-69
2023/12/18 01:43:40;;;;;;;50.53;17.00;;;7.70;99.90;;;;;;5062637;28;20055;-70
2023/12/18 01:46:06;;;;;;;46.65;18.50;;;7.70;99.90;;;;;;5062839;28;20029;-70
2023/12/18 01:48:33;;;;;;;49.67;20.52;;;7.70;99.90;;;;;;5061827;28;20089;-69
2023/12/18 01:51:00;;;;;;;50.95;19.48;;;7.70;99.90;;;;;;5060764;28;20053;-68
2023/12/18 01:53:31;;;;;;;40.28;16.40;;;7.70;99.90;;;;;;5062590;28;20389;-70
2023/12/18 01:55:57;;;;;;;49.15;19.60;;;7.70;99.90;;;;;;5062580;28;20028;-69
2023/12/18 01:58:24;;;;;;;51.70;19.13;;;7.70;99.90;;;;;;5061495;28;20025;-70
2023/12/18 02:00:52;;;;;;;55.15;19.50;;;7.80;99.90;;;;;;5061927;28;20064;-71
2023/12/18 02:03:19;;;;;;;51.75;19.20;;;7.80;99.90;;;;;;5061833;28;20589;-68
2023/12/18 02:05:44;;;;;;;48.05;19.50;;;7.80;99.90;;;;;;5060035;28;21026;-69
2023/12/18 02:08:10;;;;;;;50.88;18.65;;;7.70;99.90;;;;;;5061420;28;20059;-69
2023/12/18 02:10:37;;;;;;;48.63;19.92;;;7.70;99.90;;;;;;5062586;28;20021;-70
2023/12/18 02:13:03;;;;;;;53.85;20.55;;;7.70;99.90;;;;;;5062185;28;20060;-69
2023/12/18 02:15:29;;;;;;;57.67;20.60;;;7.70;99.90;;;;;;5062250;28;20075;-69
2023/12/18 02:17:55;;;;;;;50.03;19.35;;;7.70;99.90;;;;;;5062831;28;20441;-68
2023/12/18 02:20:20;;;;;;;46.85;19.50;;;7.70;99.90;;;;;;5062531;28;20528;-66
2023/12/18 02:22:46;;;;;;;57.63;20.42;;;7.70;99.90;;;;;;5062272;28;20043;-69
2023/12/18 02:25:12;;;;;;;56.13;21.65;;;7.70;99.90;;;;;;5062457;28;20039;-69
2023/12/18 02:27:38;;;;;;;55.75;20.33;;;7.70;99.90;;;;;;5062262;28;20043;-68
2023/12/18 02:30:05;;;;;;;53.42;20.48;;;7.70;99.90;;;;;;5062120;28;20017;-69
2023/12/18 02:32:31;;;;;;;48.15;20.67;;;7.70;99.90;;;;;;5062128;28;20066;-70
2023/12/18 02:34:57;;;;;;;57.28;20.95;;;7.70;99.90;;;;;;5062434;28;20048;-70
2023/12/18 02:37:24;;;;;;;51.33;20.27;;;7.70;99.90;;;;;;5062504;28;20021;-71
2023/12/18 02:39:49;;;;;;;47.13;18.85;;;7.70;99.90;;;;;;5062199;28;20064;-71
2023/12/18 02:42:15;;;;;;;53.10;19.08;;;7.70;99.90;;;;;;5059806;28;20576;-69
2023/12/18 02:44:40;;;;;;;42.65;16.98;;;7.70;99.90;;;;;;5061957;28;20112;-71
2023/12/18 02:47:06;;;;;;;53.45;20.30;;;7.60;99.90;;;;;;5061972;28;20029;-69
2023/12/18 02:49:32;;;;;;;57.08;20.38;;;7.60;99.90;;;;;;5061833;28;20082;-70
2023/12/18 02:51:57;;;;;;;59.05;21.40;;;7.60;99.90;;;;;;5061317;28;20054;-68
2023/12/18 02:54:23;;;;;;;54.28;22.70;;;7.60;99.90;;;;;;5060773;28;20029;-71
2023/12/18 02:56:48;;;;;;;45.15;19.65;;;7.60;99.90;;;;;;5060371;28;20108;-70
2023/12/18 02:59:14;;;;;;;54.35;21.80;;;7.60;99.90;;;;;;5061666;28;20111;-68
2023/12/18 03:01:39;;;;;;;51.72;21.25;;;7.60;99.90;;;;;;5061872;28;20019;-69
2023/12/18 03:04:05;;;;;;;59.25;22.65;;;7.60;99.90;;;;;;5061529;28;20075;-69
2023/12/18 03:06:31;;;;;;;57.13;21.15;;;7.60;99.90;;;;;;5061649;28;20085;-71
2023/12/18 03:08:56;;;;;;;53.78;20.73;;;7.60;99.90;;;;;;5061234;28;20096;-69
2023/12/18 03:11:22;;;;;;;56.22;21.65;;;7.60;99.90;;;;;;5061504;28;20029;-69
2023/12/18 03:13:47;;;;;;;54.40;21.70;;;7.60;99.90;;;;;;5060943;28;20021;-70
2023/12/18 03:16:15;;;;;;;57.63;22.70;;;7.60;99.90;;;;;;5061546;28;20089;-69
2023/12/18 03:18:40;;;;;;;52.28;22.23;;;7.60;99.90;;;;;;5057969;28;20200;-69
2023/12/18 03:21:10;;;;;;;60.38;22.23;;;7.60;99.90;;;;;;5061199;28;20090;-69
2023/12/18 03:23:36;;;;;;;50.40;21.85;;;7.60;99.90;;;;;;5060832;28;20043;-70
2023/12/18 03:26:01;;;;;;;60.83;23.00;;;7.60;99.90;;;;;;5061386;28;20045;-70
2023/12/18 03:28:27;;;;;;;61.13;23.17;;;7.60;99.90;;;;;;5061439;28;20074;-68
2023/12/18 03:30:53;;;;;;;48.00;21.20;;;7.60;99.90;;;;;;5061264;28;20029;-69
2023/12/18 03:33:19;;;;;;;63.85;22.02;;;7.60;99.90;;;;;;5059708;28;20040;-69
2023/12/18 03:35:45;;;;;;;62.47;23.92;;;7.50;99.90;;;;;;5059730;28;20048;-69
2023/12/18 03:38:11;;;;;;;60.72;22.70;;;7.50;99.90;;;;;;5060678;28;20063;-68
2023/12/18 03:40:37;;;;;;;62.05;23.20;;;7.50;99.90;;;;;;5060406;28;20043;-69
2023/12/18 03:43:02;;;;;;;55.92;23.20;;;7.50;99.90;;;;;;5058754;28;20049;-69
2023/12/18 03:45:28;;;;;;;65.68;24.73;;;7.50;99.90;;;;;;5060810;28;20048;-70
2023/12/18 03:47:54;;;;;;;59.40;23.45;;;7.50;99.90;;;;;;5060866;28;20036;-69
2023/12/18 03:50:20;;;;;;;63.10;23.45;;;7.50;99.90;;;;;;5060680;28;20028;-68
2023/12/18 03:52:45;;;;;;;65.53;25.27;;;7.40;99.90;;;;;;5060412;28;20025;-68
2023/12/18 03:55:11;;;;;;;69.72;24.25;;;7.50;99.90;;;;;;5059444;28;20037;-69
2023/12/18 03:57:36;;;;;;;52.92;24.05;;;7.50;99.90;;;;;;5060443;28;20559;-68
2023/12/18 04:00:08;;;;;;;72.40;26.38;;;7.50;99.90;;;;;;5060345;28;20037;-69
2023/12/18 04:02:58;;;;;;;60.20;24.67;;;7.40;99.90;;;;;;5078212;28;20508;-69
2023/12/18 04:05:25;;;;;;;61.45;24.08;;;7.40;99.90;;;;;;5078407;28;20028;-68
2023/12/18 04:07:50;;;;;;;60.40;25.25;;;7.40;99.90;;;;;;5078042;28;20044;-68
2023/12/18 04:10:16;;;;;;;83.50;26.83;;;7.40;99.90;;;;;;5077265;28;20037;-69
2023/12/18 04:12:42;;;;;;;62.90;24.83;;;7.40;99.90;;;;;;5077503;28;20040;-69
2023/12/18 04:15:09;;;;;;;67.95;26.02;;;7.40;99.90;;;;;;5076550;28;20028;-70
2023/12/18 04:17:35;;;;;;;64.22;25.08;;;7.40;99.90;;;;;;5077784;28;20120;-69
2023/12/18 04:20:00;;;;;;;66.25;24.63;;;7.40;99.90;;;;;;5077909;28;20033;-68
2023/12/18 04:22:26;;;;;;;66.45;26.02;;;7.40;99.90;;;;;;5076420;28;20059;-70
2023/12/18 04:24:52;;;;;;;56.50;25.70;;;7.40;99.90;;;;;;5076822;28;20131;-68
2023/12/18 04:27:17;;;;;;;70.30;27.35;;;7.40;99.90;;;;;;5076142;28;20036;-68
2023/12/18 04:29:43;;;;;;;72.80;25.88;;;7.30;99.90;;;;;;5077581;28;20025;-69
2023/12/18 04:32:11;;;;;;;62.65;27.38;;;7.30;99.90;;;;;;5076007;28;20021;-69
2023/12/18 04:34:36;;;;;;;64.82;26.08;;;7.30;99.90;;;;;;5077464;28;20027;-68
2023/12/18 04:37:02;;;;;;;66.50;28.48;;;7.30;99.90;;;;;;5077019;28;21512;-67
2023/12/18 04:39:28;;;;;;;71.65;27.27;;;7.30;99.90;;;;;;5077591;28;20183;-68
2023/12/18 04:41:53;;;;;;;68.32;27.08;;;7.30;99.90;;;;;;5077489;28;20188;-71
2023/12/18 04:44:19;;;;;;;72.53;29.25;;;7.30;99.90;;;;;;5075983;28;20112;-71
2023/12/18 04:46:46;;;;;;;74.43;27.00;;;7.30;99.90;;;;;;5077141;28;20029;-69
2023/12/18 04:49:13;;;;;;;81.70;28.33;;;7.30;99.90;;;;;;5076556;28;20028;-69
2023/12/18 04:51:38;;;;;;;74.53;29.40;;;7.30;99.90;;;;;;5075463;28;20468;-68
2023/12/18 04:54:04;;;;;;;72.85;28.77;;;7.30;99.90;;;;;;5076893;28;20025;-70
2023/12/18 04:56:29;;;;;;;79.78;30.77;;;7.30;99.90;;;;;;5077384;28;20048;-68
2023/12/18 04:58:55;;;;;;;69.63;27.65;;;7.30;99.90;;;;;;5077069;28;20151;-68
2023/12/18 05:01:20;;;;;;;72.07;30.25;;;7.30;99.90;;;;;;5075005;28;20052;-68
2023/12/18 05:03:46;;;;;;;78.47;29.60;;;7.30;99.90;;;;;;5075550;28;20021;-68
2023/12/18 05:06:22;;;;;;;71.60;26.80;;;7.30;99.90;;;;;;5076746;28;20048;-69
2023/12/18 05:08:48;;;;;;;75.43;28.85;;;7.30;99.90;;;;;;5075492;28;20111;-67
2023/12/18 05:11:17;;;;;;;70.30;28.90;;;7.30;99.90;;;;;;5075900;28;20457;-66
2023/12/18 05:13:42;;;;;;;67.57;26.95;;;7.30;99.90;;;;;;5065896;28;20458;-69
2023/12/18 05:16:08;;;;;;;75.68;31.77;;;7.30;99.90;;;;;;5063951;28;20048;-67
2023/12/18 05:18:33;;;;;;;78.72;32.25;;;7.30;99.90;;;;;;5062604;28;20029;-67
2023/12/18 05:20:59;;;;;;;76.43;30.48;;;7.30;99.90;;;;;;5063735;28;20037;-69
2023/12/18 05:23:25;;;;;;;89.78;32.65;;;7.30;99.90;;;;;;5063770;28;20041;-67
2023/12/18 05:25:51;;;;;;;78.30;29.98;;;7.30;99.90;;;;;;5063928;28;20025;-67
2023/12/18 05:28:17;;;;;;;82.55;32.13;;;7.30;99.90;;;;;;5063846;28;20060;-67
2023/12/18 05:30:43;;;;;;;86.68;29.33;;;7.30;99.90;;;;;;5063496;28;20025;-67
2023/12/18 05:33:10;;;;;;;77.82;30.67;;;7.30;99.90;;;;;;5063396;28;20044;-67
2023/12/18 05:35:35;;;;;;;86.30;32.65;;;7.30;99.90;;;;;;5063237;28;20029;-68
2023/12/18 05:38:01;;;;;;;80.18;30.80;;;7.30;99.90;;;;;;5062369;28;20104;-68
2023/12/18 05:40:27;;;;;;;64.38;28.77;;;7.40;99.90;;;;;;5057476;28;20032;-68
2023/12/18 05:42:52;;;;;;;78.97;32.00;;;7.40;99.90;;;;;;5063463;28;20033;-67
2023/12/18 05:45:18;;;;;;;83.43;31.50;;;7.40;99.90;;;;;;5063456;28;20028;-67
2023/12/18 05:47:44;;;;;;;72.18;30.80;;;7.40;99.90;;;;;;5062067;28;20056;-68
2023/12/18 05:50:09;;;;;;;77.00;30.83;;;7.40;99.90;;;;;;5063368;28;20044;-66
2023/12/18 05:52:35;;;;;;;77.20;31.88;;;7.40;99.90;;;;;;5062083;28;20044;-67
2023/12/18 05:55:00;;;;;;;74.05;31.70;;;7.40;99.90;;;;;;5062251;28;20067;-67
2023/12/18 05:57:26;;;;;;;76.57;32.88;;;7.40;99.90;;;;;;5061351;28;20029;-67
2023/12/18 05:59:51;;;;;;;75.68;30.63;;;7.40;99.90;;;;;;5061754;28;20029;-67
2023/12/18 06:02:17;;;;;;;78.43;33.03;;;7.40;99.90;;;;;;5062737;28;21257;-67
2023/12/18 06:04:43;;;;;;;78.00;31.30;;;7.40;99.90;;;;;;5062781;28;20028;-69
2023/12/18 06:07:10;;;;;;;80.65;30.05;;;7.40;99.90;;;;;;5061183;28;20081;-68
2023/12/18 06:09:35;;;;;;;80.50;32.38;;;7.40;99.90;;;;;;5059941;28;20021;-68
2023/12/18 06:12:01;;;;;;;89.13;33.05;;;7.50;99.90;;;;;;5062745;28;20052;-68
2023/12/18 06:14:27;;;;;;;81.32;31.52;;;7.50;99.90;;;;;;5062245;28;20028;-70
2023/12/18 06:16:52;;;;;;;84.00;32.47;;;7.50;99.90;;;;;;5062117;28;20086;-67
2023/12/18 06:19:18;;;;;;;69.95;30.30;;;7.50;99.90;;;;;;5061431;28;20025;-68
2023/12/18 06:21:43;;;;;;;82.00;35.08;;;7.50;99.90;;;;;;5062216;28;20056;-67
2023/12/18 06:24:09;;;;;;;78.63;31.60;;;7.50;99.90;;;;;;5061158;28;20085;-68
2023/12/18 06:26:34;;;;;;;92.32;32.13;;;7.50;99.90;;;;;;5062042;28;20076;-67
2023/12/18 06:29:01;;;;;;;76.75;32.50;;;7.50;99.90;;;;;;5061125;28;20025;-69
2023/12/18 06:31:26;;;;;;;82.57;32.47;;;7.50;99.90;;;;;;5061224;28;20535;-66
2023/12/18 06:33:52;;;;;;;89.50;32.65;;;7.50;99.90;;;;;;5062490;28;20028;-67
2023/12/18 06:36:19;;;;;;;74.35;32.35;;;7.50;99.90;;;;;;5061884;28;20033;-67
2023/12/18 06:38:45;;;;;;;85.32;33.03;;;7.50;99.90;;;;;;5060845;28;20048;-66
2023/12/18 06:41:10;;;;;;;88.78;32.53;;;7.50;99.90;;;;;;5060433;28;20041;-69
2023/12/18 06:43:36;;;;;;;82.93;33.35;;;7.50;99.90;;;;;;5060276;28;20029;-67
2023/12/18 06:46:02;;;;;;;83.60;30.60;;;7.50;99.90;;;;;;5060303;28;20029;-68
2023/12/18 06:48:27;;;;;;;82.88;32.53;;;7.50;99.90;;;;;;5061159;28;20029;-67
2023/12/18 06:50:53;;;;;;;84.57;33.90;;;7.50;99.90;;;;;;5059184;28;20021;-67
2023/12/18 06:53:19;;;;;;;76.28;31.65;;;7.50;99.90;;;;;;5057030;28;20032;-68
2023/12/18 06:55:44;;;;;;;78.85;31.60;;;7.50;99.90;;;;;;5058167;28;20170;-68
2023/12/18 06:58:10;;;;;;;79.22;32.30;;;7.50;99.90;;;;;;5048765;28;20041;-68
2023/12/18 07:00:36;;;;;;;73.18;29.73;;;7.60;99.90;;;;;;5048361;28;20036;-68
2023/12/18 07:03:01;;;;;;;88.30;32.42;;;7.60;99.90;;;;;;5054649;28;20121;-67
2023/12/18 07:05:29;;;;;;;80.22;32.53;;;7.60;99.90;;;;;;5058275;28;20029;-68
2023/12/18 07:07:55;;;;;;;75.28;30.88;;;7.50;99.90;;;;;;5057457;28;20017;-68
2023/12/18 07:10:21;;;;;;;67.18;28.58;;;7.50;99.90;;;;;;5059674;28;20013;-67
2023/12/18 07:12:47;;;;;;;68.32;30.55;;;7.70;99.90;;;;;;5059432;28;20114;-67
2023/12/18 07:15:12;;;;;;;73.90;32.50;;;7.70;99.90;;;;;;5057494;28;20071;-66
2023/12/18 07:17:38;;;;;;;91.13;33.05;;;7.80;99.90;;;;;;5058201;28;20021;-67
2023/12/18 07:20:05;;;;;;;76.45;31.55;;;7.80;99.90;;;;;;5060804;28;20020;-68
2023/12/18 07:22:33;;;;;;;84.50;32.30;;;7.80;99.90;;;;;;5060646;28;20079;-67
2023/12/18 07:24:58;;;;;;;75.65;32.35;;;7.80;99.90;;;;;;5059302;28;20032;-68
2023/12/18 07:27:24;;;;;;;81.57;31.13;;;7.80;99.90;;;;;;5059574;28;20021;-68
2023/12/18 07:29:50;;;;;;;73.05;30.92;;;7.80;99.90;;;;;;5057921;28;21455;-69
2023/12/18 07:32:15;;;;;;;80.10;29.60;;;7.70;99.90;;;;;;5057741;28;20063;-69
2023/12/18 07:34:42;;;;;;;74.65;28.70;;;7.70;99.90;;;;;;5058702;28;21810;-69
2023/12/18 07:37:07;;;;;;;86.40;32.78;;;7.70;99.90;;;;;;5060003;28;20040;-70
2023/12/18 07:39:33;;;;;;;74.22;30.60;;;7.70;99.90;;;;;;5061471;28;20029;-68
2023/12/18 07:41:59;;;;;;;77.72;32.15;;;7.60;99.90;;;;;;5059262;28;20048;-67
2023/12/18 07:44:25;;;;;;;72.20;29.95;;;7.60;99.90;;;;;;5060988;28;20056;-68
2023/12/18 07:46:52;;;;;;;68.88;30.58;;;7.70;99.90;;;;;;5061188;28;20513;-68
2023/12/18 07:49:17;;;;;;;76.72;30.48;;;7.60;99.90;;;;;;5057701;28;20021;-67
2023/12/18 07:51:43;;;;;;;71.60;28.40;;;7.60;99.90;;;;;;5058312;28;20774;-67
2023/12/18 07:54:08;;;;;;;65.63;25.02;;;7.60;99.90;;;;;;5056713;28;20050;-68
2023/12/18 07:56:34;;;;;;;68.63;27.35;;;7.60;99.90;;;;;;5058456;28;20447;-67
2023/12/18 07:59:00;;;;;;;70.15;28.92;;;7.60;99.90;;;;;;5058985;28;20021;-68
2023/12/18 08:01:26;;;;;;;75.35;30.83;;;7.70;99.90;;;;;;5058086;28;20057;-67
2023/12/18 08:03:51;;;;;;;65.13;29.70;;;7.60;99.90;;;;;;5058275;28;20120;-67
2023/12/18 08:06:17;;;;;;;74.80;26.92;;;7.60;99.90;;;;;;5057419;28;20044;-67
2023/12/18 08:08:43;;;;;;;72.88;29.48;;;7.60;99.90;;;;;;5058535;28;20051;-68
2023/12/18 08:11:09;;;;;;;65.60;29.05;;;7.70;99.90;;;;;;5059322;28;20021;-68
2023/12/18 08:13:38;;;;;;;68.88;26.15;;;7.70;99.90;;;;;;5057099;28;20053;-68
2023/12/18 08:16:06;;;;;;;73.80;28.98;;;7.70;99.90;;;;;;5058088;28;20017;-68
2023/12/18 08:18:31;;;;;;;73.32;26.80;;;7.70;99.90;;;;;;5058563;28;20401;-69
2023/12/18 08:20:57;;;;;;;65.63;27.23;;;7.70;99.90;;;;;;5059046;28;20092;-68
2023/12/18 08:23:22;;;;;;;67.82;25.80;;;7.70;99.90;;;;;;5059283;28;20029;-67
2023/12/18 08:25:48;;;;;;;70.53;29.55;;;7.80;99.90;;;;;;5058803;28;20037;-68
2023/12/18 08:28:14;;;;;;;70.28;26.65;;;7.80;99.90;;;;;;5054882;28;20047;-68
2023/12/18 08:30:39;;;;;;;70.20;27.30;;;7.80;99.90;;;;;;5056203;28;20029;-66
2023/12/18 08:33:05;;;;;;;70.85;28.50;;;7.80;99.90;;;;;;5055861;28;20040;-66
2023/12/18 08:35:30;;;;;;;60.25;26.80;;;7.80;99.90;;;;;;5058399;28;20021;-69
2023/12/18 08:37:56;;;;;;;64.15;26.38;;;7.80;99.90;;;;;;5060450;28;20057;-69
2023/12/18 08:40:22;;;;;;;71.28;27.48;;;7.80;99.90;;;;;;5060600;28;20174;-68
2023/12/18 08:42:48;;;;;;;63.75;26.92;;;7.90;99.90;;;;;;5042090;28;20073;-67
2023/12/18 08:45:13;;;;;;;69.10;26.75;;;7.80;99.90;;;;;;5055290;28;20040;-67
2023/12/18 08:47:39;;;;;;;70.97;27.00;;;7.90;99.90;;;;;;5053230;28;20074;-67
2023/12/18 08:50:05;;;;;;;65.53;27.10;;;7.90;99.90;;;;;;5058033;28;20040;-68
2023/12/18 08:52:31;;;;;;;64.95;27.38;;;7.90;99.90;;;;;;5064209;28;20092;-68
2023/12/18 08:54:56;;;;;;;67.95;27.67;;;7.90;99.90;;;;;;5058751;28;20385;-67
2023/12/18 08:57:22;;;;;;;66.97;26.33;;;7.90;99.90;;;;;;5062067;28;20604;-69
2023/12/18 08:59:50;;;;;;;63.10;27.02;;;7.90;99.90;;;;;;5055538;28;20053;-68
2023/12/18 09:02:16;;;;;;;61.28;27.48;;;7.90;99.90;;;;;;5055073;28;20041;-67
2023/12/18 09:04:42;;;;;;;61.35;24.33;;;8.00;99.90;;;;;;5054174;28;20035;-69
2023/12/18 09:07:07;;;;;;;72.93;27.63;;;8.00;99.90;;;;;;5061463;28;20060;-67
2023/12/18 09:09:33;;;;;;;67.60;27.63;;;8.00;99.90;;;;;;5056973;28;20033;-68
2023/12/18 09:11:58;;;;;;;68.95;27.02;;;8.00;99.90;;;;;;5051990;28;20040;-68
2023/12/18 09:14:24;;;;;;;68.53;27.55;;;8.00;99.90;;;;;;5062934;28;20041;-69
2023/12/18 09:16:49;;;;;;;70.50;27.98;;;8.00;99.90;;;;;;5061736;28;20044;-67
2023/12/18 09:19:15;;;;;;;68.53;26.45;;;8.00;99.90;;;;;;5063260;28;20033;-67
2023/12/18 09:21:40;;;;;;;68.47;28.10;;;8.00;99.90;;;;;;5062107;28;20083;-68
2023/12/18 09:24:07;;;;;;;69.45;28.15;;;8.00;99.90;;;;;;5060784;28;20025;-68
2023/12/18 09:26:33;;;;;;;68.25;24.85;;;8.00;99.90;;;;;;5061311;28;20029;-68
2023/12/18 09:28:59;;;;;;;63.88;27.67;;;8.00;99.90;;;;;;5062222;28;20481;-68
2023/12/18 09:31:24;;;;;;;66.45;27.30;;;8.00;99.90;;;;;;5057195;28;20032;-66
2023/12/18 09:33:50;;;;;;;72.53;29.27;;;8.00;99.90;;;;;;5062240;28;20040;-67
2023/12/18 09:36:17;;;;;;;65.00;26.02;;;8.00;99.90;;;;;;5057030;28;20061;-67
2023/12/18 09:38:43;;;;;;;68.82;27.42;;;8.00;99.90;;;;;;5062071;28;20024;-68
2023/12/18 09:41:08;;;;;;;72.90;27.80;;;8.00;99.90;;;;;;5061993;28;20029;-67
2023/12/18 09:43:34;;;;;;;59.78;27.88;;;8.00;99.90;;;;;;5063180;28;20024;-67
2023/12/18 09:46:00;;;;;;;67.15;28.48;;;8.00;99.90;;;;;;5063241;28;20029;-66
2023/12/18 09:48:26;;;;;;;67.93;29.02;;;8.00;99.90;;;;;;5060817;28;20032;-68
2023/12/18 09:50:51;;;;;;;65.50;27.00;;;8.10;99.90;;;;;;5058249;28;20021;-68
2023/12/18 09:53:20;;;;;;;63.17;26.58;;;8.10;99.90;;;;;;5058830;28;20039;-69
2023/12/18 09:55:48;;;;;;;75.63;27.55;;;8.10;99.90;;;;;;5059867;28;20080;-70
2023/12/18 09:58:17;;;;;;;59.38;25.65;;;8.10;99.90;;;;;;5059926;28;20021;-67
2023/12/18 10:00:43;;;;;;;71.55;29.20;;;8.10;99.90;;;;;;5062002;28;20025;-68
2023/12/18 10:03:09;;;;;;;76.68;28.33;;;8.10;99.90;;;;;;5057003;28;20048;-67
2023/12/18 10:05:35;;;;;;;77.78;30.27;;;8.10;99.90;;;;;;5058776;28;20080;-69
2023/12/18 10:08:01;;;;;;;70.43;28.00;;;8.10;99.90;;;;;;5077386;28;20044;-68
2023/12/18 10:10:27;;;;;;;70.13;30.25;;;8.10;99.90;;;;;;5059817;28;20498;-67
2023/12/18 10:12:53;;;;;;;74.05;29.67;;;8.10;99.90;;;;;;5062000;28;20020;-69
2023/12/18 10:15:18;;;;;;;70.43;28.75;;;8.10;99.90;;;;;;5061556;28;20473;-66
2023/12/18 10:17:45;;;;;;;69.50;27.92;;;8.10;99.90;;;;;;5061645;28;20285;-68
2023/12/18 10:20:12;;;;;;;79.03;31.33;;;8.10;99.90;;;;;;5059901;28;20029;-68
2023/12/18 10:22:41;;;;;;;71.50;27.38;;;8.10;99.90;;;;;;5057516;28;20029;-67
2023/12/18 10:25:09;;;;;;;82.53;30.13;;;8.10;99.90;;;;;;5060575;28;20040;-68
2023/12/18 10:27:38;;;;;;;71.65;29.63;;;8.10;99.90;;;;;;5058724;28;20021;-68
2023/12/18 10:30:08;;;;;;;69.85;29.55;;;8.10;99.90;;;;;;5058445;28;20021;-69
2023/12/18 10:32:37;;;;;;;70.30;26.40;;;8.20;99.90;;;;;;5056813;28;20017;-68
2023/12/18 10:35:04;;;;;;;83.13;30.10;;;8.10;99.90;;;;;;5060714;28;20068;-69
2023/12/18 10:37:30;;;;;;;68.57;29.83;;;8.20;99.90;;;;;;5060876;28;20055;-68
2023/12/18 10:40:04;;;;;;;82.78;28.80;;;8.10;99.90;;;;;;5057029;28;20029;-70
2023/12/18 10:42:37;;;;;;;71.97;30.48;;;8.20;99.90;;;;;;5053564;28;20037;-68
2023/12/18 10:45:06;;;;;;;72.85;28.10;;;8.20;99.90;;;;;;5060150;28;20029;-67
2023/12/18 10:47:32;;;;;;;83.47;28.23;;;8.20;99.90;;;;;;5060218;28;20028;-70
2023/12/18 10:50:01;;;;;;;73.05;30.45;;;8.20;99.90;;;;;;5060550;28;20342;-68
2023/12/18 10:52:31;;;;;;;81.13;29.40;;;8.20;99.90;;;;;;5060596;28;20025;-68
2023/12/18 10:55:03;;;;;;;79.35;30.08;;;8.20;99.90;;;;;;5061293;28;20071;-70
2023/12/18 10:57:29;;;;;;;71.70;25.52;;;8.20;99.90;;;;;;5061710;28;20051;-70
2023/12/18 10:59:57;;;;;;;84.35;30.27;;;8.20;99.90;;;;;;5060650;28;20017;-68
2023/12/18 11:02:24;;;;;;;73.85;30.42;;;8.20;99.90;;;;;;5061295;28;20053;-69
2023/12/18 11:04:50;;;;;;;67.72;29.42;;;8.20;99.90;;;;;;5061696;28;20025;-68
2023/12/18 11:07:19;;;;;;;74.38;30.08;;;8.20;99.90;;;;;;5061670;28;20032;-68
2023/12/18 11:09:45;;;;;;;75.70;29.55;;;8.20;99.90;;;;;;5061422;28;20394;-66
2023/12/18 11:12:13;;;;;;;76.05;30.60;;;8.20;99.90;;;;;;5060694;28;20089;-69
2023/12/18 11:15:07;;;;;;;73.68;29.63;;;8.20;99.90;;;;;;5061550;28;20021;-68
2023/12/18 11:17:41;;;;;;;62.25;28.38;;;8.20;99.90;;;;;;5059701;28;20024;-68
2023/12/18 11:20:17;;;;;;;75.50;28.85;;;8.10;99.90;;;;;;5061410;28;20039;-67
2023/12/18 11:22:44;;;;;;;71.97;27.30;;;8.20;99.90;;;;;;5060032;28;20041;-67
2023/12/18 11:25:10;;;;;;;76.88;27.52;;;8.20;99.90;;;;;;5060047;28;20035;-68
2023/12/18 11:27:39;;;;;;;75.60;27.92;;;8.20;99.90;;;;;;5061186;28;20017;-69
2023/12/18 11:30:05;;;;;;;83.63;30.15;;;8.20;99.90;;;;;;5059819;28;20025;-69
2023/12/18 11:32:45;;;;;;;63.92;26.95;;;8.20;99.90;;;;;;5061343;28;20112;-68
2023/12/18 11:35:12;;;;;;;78.30;28.73;;;8.20;99.90;;;;;;5061065;28;20044;-69
2023/12/18 11:38:07;;;;;;;69.25;28.38;;;8.20;99.90;;;;;;5061243;28;20021;-69
2023/12/18 11:40:36;;;;;;;;;;;8.20;99.90;;;;;;5059309;28;20394;-66
2023/12/18 11:43:03;;;;;;;73.95;27.35;;;8.20;99.90;;;;;;5060917;28;21232;-69
2023/12/18 11:45:29;;;;;;;74.57;29.20;;;8.20;99.90;;;;;;5061287;28;20021;-68
2023/12/18 11:48:01;;;;;;;76.05;28.98;;;8.20;99.90;;;;;;5060781;28;20028;-69
2023/12/18 11:50:40;;;;;;;77.28;30.10;;;8.20;99.90;;;;;;5060825;28;20029;-68
2023/12/18 11:53:30;;;;;;;73.15;29.42;;;8.20;99.90;;;;;;5060690;28;20060;-67
2023/12/18 11:55:56;;;;;;;68.82;28.20;;;8.20;99.90;;;;;;5060970;28;20103;-68
2023/12/18 11:58:25;;;;;;;72.43;30.05;;;8.20;99.90;;;;;;5061225;28;20037;-67
2023/12/18 12:00:51;;;;;;;67.10;28.48;;;8.20;99.90;;;;;;5060378;28;20032;-66
2023/12/18 12:03:18;;;;;;;63.85;27.90;;;8.20;99.90;;;;;;5059152;28;20037;-67
2023/12/18 12:05:46;;;;;;;84.80;31.45;;;8.30;99.90;;;;;;5060970;28;20939;-68
2023/12/18 12:08:12;;;;;;;74.97;26.52;;;8.20;99.90;;;;;;5060897;28;20017;-67
2023/12/18 12:10:45;;;;;;;65.47;25.48;;;8.20;99.90;;;;;;5060825;28;20024;-67
2023/12/18 12:13:21;;;;;;;65.93;27.20;;;8.20;99.90;;;;;;5060418;28;20105;-68
2023/12/18 12:15:51;;;;;;;64.95;26.02;;;8.20;99.90;;;;;;5060477;28;20021;-67
2023/12/18 12:18:17;;;;;;;71.00;26.67;;;8.20;99.90;;;;;;5060797;28;20029;-69
2023/12/18 12:20:43;;;;;;;71.00;27.23;;;8.20;99.90;;;;;;5060761;28;20071;-69
2023/12/18 12:23:09;;;;;;;74.15;26.42;;;8.20;99.90;;;;;;5061855;28;20048;-68
2023/12/18 12:25:34;;;;;;;80.45;29.30;;;8.20;99.90;;;;;;5065155;28;20386;-69
2023/12/18 12:28:00;;;;;;;72.63;29.55;;;8.20;99.90;;;;;;5064748;28;20017;-67
2023/12/18 12:30:26;;;;;;;70.03;28.85;;;8.20;99.90;;;;;;5064702;28;20049;-68
2023/12/18 12:32:52;;;;;;;76.50;29.63;;;8.20;99.90;;;;;;5063099;28;20025;-65
2023/12/18 12:35:18;;;;;;;67.32;27.08;;;8.20;99.90;;;;;;5064642;28;20482;-67